AFL1249 UHMP-UUEE
Flight info
| Callsign | AFL1249 |
|---|---|
| Flight time | N/A |
| Altitude | 32000 |
| Route | SEMNU DCT LUTEM DCT 75N163E 77N155E 79N143E/K0893F340 81N111E DCT KUTET W85 MELAM W72 GAMRI DCT 73N059E 71N055E DCT NRM M131 AMEGO P65 ROMTA ROMTA3E |
| Aircraft | B77W/H-SDE1E2E3FGHIJ2J3J4J5M1RWXY/LB1D1 |
Departure
| Time | 2026-04-24 20:01 |
|---|---|
| Airport | Pevek Airport (UHMP) |
Arrival
| Time | N/A |
|---|---|
| Airport | Sheremetyevo International Airport (UUEE) |
| Time | Latitude | Longitude | Altitude | Speed | Heading |
|---|---|---|---|---|---|
| 2026-04-24 19:34 | 69.78707 | 170.60136 | 22 ft | 0 kts | 78° |
| 2026-04-24 19:49 | 69.78704 | 170.60105 | 22 ft | 4 kts | 136° |
| 2026-04-24 19:49 | 69.78746 | 170.60081 | 24 ft | 2 kts | 166° |
| 2026-04-24 19:50 | 69.78823 | 170.60028 | 24 ft | 4 kts | 166° |
| 2026-04-24 19:50 | 69.78848 | 170.60010 | 22 ft | 2 kts | 166° |
| 2026-04-24 19:51 | 69.78879 | 170.59996 | 22 ft | 0 kts | 178° |
| 2026-04-24 19:53 | 69.78843 | 170.59877 | 22 ft | 9 kts | 253° |
| 2026-04-24 19:54 | 69.78820 | 170.59640 | 24 ft | 15 kts | 256° |
| 2026-04-24 19:54 | 69.78760 | 170.59411 | 28 ft | 16 kts | 194° |
| 2026-04-24 19:54 | 69.78632 | 170.59466 | 26 ft | 21 kts | 166° |
| 2026-04-24 19:54 | 69.78472 | 170.59576 | 20 ft | 26 kts | 168° |
| 2026-04-24 19:55 | 69.78352 | 170.59648 | 23 ft | 26 kts | 167° |
| 2026-04-24 19:55 | 69.78112 | 170.59801 | 27 ft | 28 kts | 167° |
| 2026-04-24 19:55 | 69.77904 | 170.59937 | 24 ft | 32 kts | 167° |
| 2026-04-24 19:55 | 69.77679 | 170.60091 | 23 ft | 34 kts | 166° |
| 2026-04-24 19:56 | 69.77437 | 170.60260 | 26 ft | 25 kts | 166° |
| 2026-04-24 19:56 | 69.77376 | 170.60303 | 23 ft | 13 kts | 166° |
| 2026-04-24 19:56 | 69.77287 | 170.60463 | 28 ft | 6 kts | 156° |
| 2026-04-24 19:56 | 69.77264 | 170.60387 | 27 ft | 6 kts | 277° |
| 2026-04-24 19:57 | 69.77304 | 170.60330 | 30 ft | 9 kts | 349° |
| 2026-04-24 19:57 | 69.77313 | 170.60325 | 25 ft | 0 kts | 349° |
| 2026-04-24 20:00 | 69.77336 | 170.60313 | 26 ft | 20 kts | 349° |
| 2026-04-24 20:00 | 69.77812 | 170.59998 | 25 ft | 119 kts | 346° |
| 2026-04-24 20:00 | 69.78891 | 170.59269 | 106 ft | 194 kts | 348° |
| 2026-04-24 20:01 | 69.80256 | 170.58304 | 1020 ft | 200 kts | 345° |
| 2026-04-24 20:01 | 69.81617 | 170.57067 | 2092 ft | 211 kts | 344° |
| 2026-04-24 20:01 | 69.83049 | 170.55791 | 2847 ft | 222 kts | 345° |
| 2026-04-24 20:01 | 69.84592 | 170.54457 | 3195 ft | 240 kts | 346° |
| 2026-04-24 20:02 | 69.85670 | 170.53650 | 3497 ft | 243 kts | 356° |
| 2026-04-24 20:02 | 69.87760 | 170.55504 | 4255 ft | 240 kts | 46° |
| 2026-04-24 20:02 | 69.88889 | 170.59033 | 4868 ft | 241 kts | 41° |
| 2026-04-24 20:02 | 69.90455 | 170.60865 | 5491 ft | 251 kts | 8° |
| 2026-04-24 20:03 | 69.92194 | 170.60477 | 6235 ft | 257 kts | 354° |
| 2026-04-24 20:03 | 69.93974 | 170.59676 | 6823 ft | 262 kts | 359° |
| 2026-04-24 20:03 | 69.95795 | 170.59142 | 7506 ft | 265 kts | 360° |
| 2026-04-24 20:03 | 69.97641 | 170.58662 | 8244 ft | 267 kts | 360° |
| 2026-04-24 20:04 | 69.99499 | 170.58191 | 8909 ft | 270 kts | 360° |
| 2026-04-24 20:04 | 70.01385 | 170.57708 | 9549 ft | 274 kts | 359° |
| 2026-04-24 20:04 | 70.03301 | 170.57214 | 10148 ft | 280 kts | 359° |
| 2026-04-24 20:04 | 70.05308 | 170.56701 | 10378 ft | 301 kts | 358° |
| 2026-04-24 20:05 | 70.07416 | 170.55939 | 10507 ft | 320 kts | 348° |
| 2026-04-24 20:05 | 70.09584 | 170.53547 | 10699 ft | 345 kts | 339° |
| 2026-04-24 20:05 | 70.11834 | 170.50591 | 11071 ft | 361 kts | 338° |
| 2026-04-24 20:05 | 70.14155 | 170.47537 | 11702 ft | 369 kts | 338° |
| 2026-04-24 20:06 | 70.16516 | 170.44441 | 12416 ft | 374 kts | 338° |
| 2026-04-24 20:06 | 70.18908 | 170.41317 | 13141 ft | 378 kts | 338° |
| 2026-04-24 20:06 | 70.21325 | 170.38164 | 13854 ft | 382 kts | 338° |
| 2026-04-24 20:06 | 70.23763 | 170.34997 | 14525 ft | 386 kts | 338° |
| 2026-04-24 20:07 | 70.25400 | 170.32867 | 14955 ft | 390 kts | 338° |
| 2026-04-24 20:07 | 70.28706 | 170.28545 | 15778 ft | 394 kts | 338° |
| 2026-04-24 20:07 | 70.31228 | 170.25266 | 15817 ft | 398 kts | 338° |
| 2026-04-24 20:07 | 70.33763 | 170.21957 | 15822 ft | 397 kts | 338° |
| 2026-04-24 20:08 | 70.36288 | 170.18657 | 15818 ft | 396 kts | 338° |
| 2026-04-24 20:08 | 70.38812 | 170.15351 | 15979 ft | 399 kts | 338° |
| 2026-04-24 20:08 | 70.41367 | 170.11989 | 16605 ft | 403 kts | 337° |
| 2026-04-24 20:08 | 70.43935 | 170.08596 | 17321 ft | 405 kts | 337° |
| 2026-04-24 20:09 | 70.46521 | 170.05170 | 17953 ft | 408 kts | 337° |
| 2026-04-24 20:09 | 70.49099 | 170.01745 | 18519 ft | 413 kts | 337° |
| 2026-04-24 20:09 | 70.51740 | 169.98226 | 19097 ft | 417 kts | 337° |
| 2026-04-24 20:09 | 70.54401 | 169.94674 | 19692 ft | 421 kts | 337° |
| 2026-04-24 20:10 | 70.57083 | 169.91082 | 20281 ft | 423 kts | 337° |
| 2026-04-24 20:10 | 70.59783 | 169.87455 | 20839 ft | 427 kts | 337° |
| 2026-04-24 20:10 | 70.62507 | 169.83784 | 21374 ft | 431 kts | 336° |
| 2026-04-24 20:10 | 70.65252 | 169.80075 | 21897 ft | 434 kts | 336° |
| 2026-04-24 20:11 | 70.68020 | 169.76320 | 22409 ft | 438 kts | 336° |
| 2026-04-24 20:11 | 70.70807 | 169.72530 | 22883 ft | 441 kts | 336° |
| 2026-04-24 20:11 | 70.73573 | 169.68760 | 23364 ft | 444 kts | 336° |
| 2026-04-24 20:11 | 70.76407 | 169.64885 | 23843 ft | 447 kts | 336° |
| 2026-04-24 20:12 | 70.79249 | 169.60977 | 24277 ft | 450 kts | 336° |
| 2026-04-24 20:12 | 70.82113 | 169.57036 | 24703 ft | 454 kts | 336° |
| 2026-04-24 20:12 | 70.84998 | 169.53061 | 25141 ft | 456 kts | 336° |
| 2026-04-24 20:12 | 70.87901 | 169.49046 | 25557 ft | 459 kts | 336° |
| 2026-04-24 20:13 | 70.90815 | 169.45001 | 25967 ft | 462 kts | 336° |
| 2026-04-24 20:13 | 70.93747 | 169.40910 | 26375 ft | 464 kts | 336° |
| 2026-04-24 20:13 | 70.96692 | 169.36790 | 26767 ft | 467 kts | 336° |
| 2026-04-24 20:13 | 70.99610 | 169.32694 | 27135 ft | 469 kts | 336° |
| 2026-04-24 20:14 | 71.02588 | 169.28503 | 27478 ft | 472 kts | 336° |
| 2026-04-24 20:14 | 71.05582 | 169.24267 | 27814 ft | 475 kts | 336° |
| 2026-04-24 20:14 | 71.08588 | 169.20004 | 28146 ft | 477 kts | 336° |
| 2026-04-24 20:14 | 71.11607 | 169.15711 | 28469 ft | 479 kts | 336° |
| 2026-04-24 20:15 | 71.14646 | 169.11377 | 28767 ft | 481 kts | 336° |
| 2026-04-24 20:15 | 71.17686 | 169.07025 | 29094 ft | 482 kts | 336° |
| 2026-04-24 20:15 | 71.20734 | 169.02646 | 29488 ft | 482 kts | 336° |
| 2026-04-24 20:15 | 71.23765 | 168.98275 | 29914 ft | 480 kts | 335° |
| 2026-04-24 20:16 | 71.26741 | 168.93966 | 30326 ft | 478 kts | 335° |
| 2026-04-24 20:16 | 71.29758 | 168.89587 | 30664 ft | 478 kts | 335° |
| 2026-04-24 20:16 | 71.32771 | 168.85201 | 30955 ft | 479 kts | 335° |
| 2026-04-24 20:16 | 71.35795 | 168.80777 | 31258 ft | 479 kts | 335° |
| 2026-04-24 20:17 | 71.38810 | 168.76353 | 31567 ft | 479 kts | 335° |
| 2026-04-24 20:17 | 71.44864 | 168.67422 | 31852 ft | 484 kts | 335° |
| 2026-04-24 20:17 | 71.47912 | 168.62903 | 31865 ft | 483 kts | 335° |
| 2026-04-24 20:18 | 71.53903 | 168.53980 | 31866 ft | 477 kts | 335° |
| 2026-04-24 20:18 | 71.59901 | 168.44982 | 31872 ft | 477 kts | 335° |
| 2026-04-24 20:19 | 71.65894 | 168.35926 | 31871 ft | 478 kts | 335° |
| 2026-04-24 20:19 | 71.71890 | 168.26801 | 31873 ft | 478 kts | 335° |
| 2026-04-24 20:20 | 71.77855 | 168.17658 | 31869 ft | 479 kts | 335° |
| 2026-04-24 20:20 | 71.83853 | 168.08403 | 31879 ft | 479 kts | 335° |
| 2026-04-24 20:21 | 71.89860 | 167.99164 | 31882 ft | 479 kts | 336° |
| 2026-04-24 20:21 | 71.95998 | 167.90807 | 31912 ft | 478 kts | 338° |
| 2026-04-24 20:22 | 72.02129 | 167.82851 | 31921 ft | 478 kts | 339° |
| 2026-04-24 20:22 | 72.08297 | 167.74718 | 31928 ft | 479 kts | 338° |
| 2026-04-24 20:23 | 72.14460 | 167.66432 | 31933 ft | 480 kts | 338° |
| 2026-04-24 20:23 | 72.20616 | 167.58035 | 31922 ft | 479 kts | 338° |
| 2026-04-24 20:24 | 72.26722 | 167.49668 | 31935 ft | 478 kts | 338° |
| 2026-04-24 20:24 | 72.32856 | 167.41205 | 31931 ft | 478 kts | 338° |
| 2026-04-24 20:25 | 72.38971 | 167.32703 | 31936 ft | 477 kts | 338° |
| 2026-04-24 20:25 | 72.45078 | 167.24144 | 31943 ft | 476 kts | 337° |
| 2026-04-24 20:26 | 72.51177 | 167.15529 | 31934 ft | 476 kts | 337° |
| 2026-04-24 20:26 | 72.57226 | 167.06936 | 31931 ft | 476 kts | 337° |
| 2026-04-24 20:27 | 72.63304 | 166.98227 | 31937 ft | 475 kts | 337° |
| 2026-04-24 20:27 | 72.69386 | 166.89454 | 31919 ft | 476 kts | 337° |
| 2026-04-24 20:28 | 72.75419 | 166.80692 | 31911 ft | 475 kts | 337° |
| 2026-04-24 20:28 | 72.81482 | 166.71818 | 31920 ft | 475 kts | 337° |
| 2026-04-24 20:29 | 72.87552 | 166.62861 | 31917 ft | 475 kts | 336° |
| 2026-04-24 20:29 | 72.93601 | 166.53865 | 31916 ft | 475 kts | 336° |
| 2026-04-24 20:30 | 72.99613 | 166.44865 | 31918 ft | 475 kts | 336° |
| 2026-04-24 20:30 | 73.05650 | 166.35749 | 31916 ft | 474 kts | 336° |
| 2026-04-24 20:31 | 73.11681 | 166.26584 | 31931 ft | 474 kts | 336° |
| 2026-04-24 20:31 | 73.17698 | 166.17364 | 31927 ft | 474 kts | 336° |
| 2026-04-24 20:32 | 73.23718 | 166.08069 | 31930 ft | 474 kts | 336° |
| 2026-04-24 20:32 | 73.29688 | 165.98786 | 31925 ft | 473 kts | 336° |
| 2026-04-24 20:33 | 73.35691 | 165.89375 | 31923 ft | 473 kts | 336° |
| 2026-04-24 20:33 | 73.41687 | 165.79902 | 31928 ft | 473 kts | 336° |
| 2026-04-24 20:34 | 73.47671 | 165.70375 | 31923 ft | 472 kts | 336° |
| 2026-04-24 20:34 | 73.53610 | 165.60848 | 31922 ft | 472 kts | 336° |
| 2026-04-24 20:35 | 73.59584 | 165.51190 | 31928 ft | 472 kts | 336° |
| 2026-04-24 20:35 | 73.65547 | 165.41473 | 31924 ft | 472 kts | 336° |
| 2026-04-24 20:36 | 73.71511 | 165.31679 | 31935 ft | 472 kts | 335° |
| 2026-04-24 20:36 | 73.77433 | 165.21879 | 31931 ft | 472 kts | 335° |
| 2026-04-24 20:37 | 73.83392 | 165.11931 | 31934 ft | 473 kts | 335° |
| 2026-04-24 20:37 | 73.89344 | 165.01921 | 31932 ft | 472 kts | 335° |
| 2026-04-24 20:38 | 73.95279 | 164.91846 | 31950 ft | 472 kts | 335° |
| 2026-04-24 20:38 | 74.01180 | 164.81770 | 31947 ft | 472 kts | 335° |
| 2026-04-24 20:39 | 74.07116 | 164.71547 | 31947 ft | 472 kts | 335° |
| 2026-04-24 20:39 | 74.13047 | 164.61243 | 31947 ft | 472 kts | 335° |
| 2026-04-24 20:40 | 74.18972 | 164.50868 | 31947 ft | 472 kts | 335° |
| 2026-04-24 20:40 | 74.23897 | 164.42184 | 31945 ft | 472 kts | 334° |
| 2026-04-24 20:41 | 74.30770 | 164.29964 | 31945 ft | 472 kts | 334° |
| 2026-04-24 20:41 | 74.36671 | 164.19380 | 31942 ft | 472 kts | 334° |
| 2026-04-24 20:42 | 74.42573 | 164.08702 | 31949 ft | 472 kts | 334° |
| 2026-04-24 20:42 | 74.47477 | 163.99760 | 31947 ft | 472 kts | 334° |
| 2026-04-24 20:43 | 74.54322 | 163.87182 | 31947 ft | 472 kts | 334° |
| 2026-04-24 20:43 | 74.60211 | 163.76259 | 31952 ft | 472 kts | 334° |
| 2026-04-24 20:44 | 74.65097 | 163.67126 | 31954 ft | 472 kts | 334° |
| 2026-04-24 20:44 | 74.70978 | 163.56047 | 31956 ft | 472 kts | 333° |
| 2026-04-24 20:45 | 74.77811 | 163.43076 | 31955 ft | 473 kts | 333° |
| 2026-04-24 20:45 | 74.83687 | 163.31804 | 31953 ft | 473 kts | 333° |
| 2026-04-24 20:46 | 74.88569 | 163.22365 | 31952 ft | 473 kts | 333° |
| 2026-04-24 20:46 | 74.94441 | 163.10930 | 31951 ft | 473 kts | 333° |
| 2026-04-24 20:47 | 75.00207 | 162.98764 | 31948 ft | 473 kts | 326° |
| 2026-04-24 20:47 | 75.06165 | 162.80277 | 31955 ft | 472 kts | 319° |
| 2026-04-24 20:48 | 75.10279 | 162.66350 | 31953 ft | 473 kts | 319° |
| 2026-04-24 20:48 | 75.15240 | 162.49519 | 31955 ft | 473 kts | 319° |
| 2026-04-24 20:49 | 75.20217 | 162.32649 | 31955 ft | 474 kts | 319° |
| 2026-04-24 20:49 | 75.25193 | 162.15722 | 31954 ft | 474 kts | 318° |
| 2026-04-24 20:50 | 75.30122 | 161.98803 | 31962 ft | 473 kts | 318° |
| 2026-04-24 20:50 | 75.35066 | 161.81676 | 31959 ft | 473 kts | 318° |
| 2026-04-24 20:51 | 75.40003 | 161.64408 | 31928 ft | 473 kts | 318° |
| 2026-04-24 20:51 | 75.44919 | 161.47051 | 31957 ft | 473 kts | 317° |
| 2026-04-24 20:52 | 75.49791 | 161.29696 | 31954 ft | 473 kts | 317° |
| 2026-04-24 20:52 | 75.54681 | 161.12106 | 31954 ft | 473 kts | 317° |
| 2026-04-24 20:53 | 75.59551 | 160.94423 | 31955 ft | 472 kts | 317° |
| 2026-04-24 20:53 | 75.64405 | 160.76642 | 31954 ft | 472 kts | 317° |
| 2026-04-24 20:54 | 75.69249 | 160.58734 | 31952 ft | 472 kts | 317° |
| 2026-04-24 20:54 | 75.74040 | 160.40859 | 31927 ft | 472 kts | 316° |
| 2026-04-24 20:55 | 75.78856 | 160.22702 | 31914 ft | 472 kts | 316° |
| 2026-04-24 20:55 | 75.83656 | 160.04449 | 31907 ft | 472 kts | 316° |
| 2026-04-24 20:56 | 75.88438 | 159.86074 | 31908 ft | 472 kts | 316° |
| 2026-04-24 20:56 | 75.93172 | 159.67722 | 31909 ft | 471 kts | 316° |
| 2026-04-24 20:57 | 75.97921 | 159.49130 | 31908 ft | 471 kts | 316° |
| 2026-04-24 20:57 | 76.02658 | 159.30405 | 31908 ft | 471 kts | 315° |
| 2026-04-24 20:58 | 76.07372 | 159.11607 | 31910 ft | 470 kts | 315° |
| 2026-04-24 20:58 | 76.12036 | 158.92807 | 31908 ft | 469 kts | 315° |
| 2026-04-24 20:59 | 76.16703 | 158.73814 | 31906 ft | 468 kts | 315° |
| 2026-04-24 20:59 | 76.21350 | 158.54722 | 31908 ft | 468 kts | 315° |
| 2026-04-24 21:00 | 76.25971 | 158.35526 | 31904 ft | 467 kts | 315° |
| 2026-04-24 21:00 | 76.30543 | 158.16388 | 31905 ft | 466 kts | 315° |
| 2026-04-24 21:01 | 76.35127 | 157.96992 | 31908 ft | 466 kts | 315° |
| 2026-04-24 21:01 | 76.39696 | 157.77471 | 31906 ft | 466 kts | 315° |
| 2026-04-24 21:02 | 76.44251 | 157.57823 | 31905 ft | 466 kts | 314° |
| 2026-04-24 21:02 | 76.48762 | 157.38150 | 31911 ft | 467 kts | 314° |
| 2026-04-24 21:03 | 76.53282 | 157.18239 | 31953 ft | 465 kts | 314° |
| 2026-04-24 21:03 | 76.57774 | 156.98256 | 31949 ft | 465 kts | 314° |
| 2026-04-24 21:04 | 76.62250 | 156.78156 | 31961 ft | 466 kts | 314° |
| 2026-04-24 21:04 | 76.64466 | 156.68134 | 32144 ft | 468 kts | 314° |
| 2026-04-24 21:04 | 76.66705 | 156.57947 | 32445 ft | 467 kts | 314° |
| 2026-04-24 21:05 | 76.68940 | 156.47726 | 32775 ft | 466 kts | 313° |
| 2026-04-24 21:05 | 76.71166 | 156.37490 | 33050 ft | 466 kts | 313° |
| 2026-04-24 21:05 | 76.73387 | 156.27227 | 33355 ft | 465 kts | 313° |
| 2026-04-24 21:05 | 76.75603 | 156.16931 | 33561 ft | 467 kts | 313° |
| 2026-04-24 21:06 | 76.77822 | 156.06572 | 33754 ft | 467 kts | 313° |
| 2026-04-24 21:06 | 76.80041 | 155.96157 | 33839 ft | 469 kts | 313° |
| 2026-04-24 21:06 | 76.84447 | 155.75329 | 33895 ft | 468 kts | 313° |
| 2026-04-24 21:07 | 76.88836 | 155.54358 | 33906 ft | 465 kts | 312° |
| 2026-04-24 21:07 | 76.93186 | 155.33345 | 33909 ft | 463 kts | 312° |
| 2026-04-24 21:08 | 76.97510 | 155.12271 | 33904 ft | 462 kts | 312° |
| 2026-04-24 21:08 | 77.01806 | 154.91315 | 33909 ft | 462 kts | 313° |
| 2026-04-24 21:09 | 77.06289 | 154.70788 | 33912 ft | 463 kts | 314° |
| 2026-04-24 21:09 | 77.10816 | 154.50222 | 33908 ft | 465 kts | 314° |
| 2026-04-24 21:10 | 77.15321 | 154.29382 | 33912 ft | 466 kts | 314° |
| 2026-04-24 21:10 | 77.19778 | 154.08404 | 33905 ft | 467 kts | 313° |
| 2026-04-24 21:11 | 77.24248 | 153.87099 | 33900 ft | 467 kts | 313° |
| 2026-04-24 21:11 | 77.28695 | 153.65658 | 33897 ft | 467 kts | 313° |
| 2026-04-24 21:12 | 77.33122 | 153.44104 | 33897 ft | 465 kts | 313° |
| 2026-04-24 21:12 | 77.37485 | 153.22621 | 33897 ft | 464 kts | 313° |
| 2026-04-24 21:13 | 77.41851 | 153.00892 | 33897 ft | 463 kts | 312° |
| 2026-04-24 21:13 | 77.46195 | 152.79047 | 33906 ft | 462 kts | 312° |
| 2026-04-24 21:14 | 77.50501 | 152.57148 | 33906 ft | 461 kts | 311° |
| 2026-04-24 21:14 | 77.54754 | 152.35284 | 33908 ft | 460 kts | 311° |
| 2026-04-24 21:15 | 77.59018 | 152.13135 | 33905 ft | 460 kts | 311° |
| 2026-04-24 21:15 | 77.63256 | 151.90857 | 33907 ft | 460 kts | 311° |
| 2026-04-24 21:16 | 77.67480 | 151.68419 | 33909 ft | 460 kts | 310° |
| 2026-04-24 21:16 | 77.71655 | 151.45983 | 33909 ft | 460 kts | 310° |
| 2026-04-24 21:17 | 77.75844 | 151.23241 | 33905 ft | 460 kts | 310° |
| 2026-04-24 21:17 | 77.80015 | 151.00336 | 33959 ft | 459 kts | 310° |
| 2026-04-24 21:18 | 77.84165 | 150.77272 | 33949 ft | 460 kts | 309° |
| 2026-04-24 21:18 | 77.88295 | 150.54051 | 33970 ft | 459 kts | 309° |
| 2026-04-24 21:19 | 77.92369 | 150.30896 | 34007 ft | 459 kts | 309° |
| 2026-04-24 21:19 | 77.96453 | 150.07426 | 34021 ft | 459 kts | 309° |
| 2026-04-24 21:20 | 78.02558 | 149.71831 | 34011 ft | 461 kts | 308° |
| 2026-04-24 21:21 | 78.06611 | 149.47838 | 34011 ft | 461 kts | 308° |
| 2026-04-24 21:21 | 78.10618 | 149.23843 | 34008 ft | 462 kts | 308° |
| 2026-04-24 21:22 | 78.14637 | 148.99501 | 34008 ft | 462 kts | 308° |
| 2026-04-24 21:22 | 78.18631 | 148.75006 | 34007 ft | 462 kts | 307° |
| 2026-04-24 21:23 | 78.22604 | 148.50367 | 34009 ft | 462 kts | 307° |
| 2026-04-24 21:23 | 78.26526 | 148.25744 | 34010 ft | 461 kts | 307° |
| 2026-04-24 21:24 | 78.30450 | 148.00794 | 34007 ft | 460 kts | 307° |
| 2026-04-24 21:24 | 78.34344 | 147.75742 | 34009 ft | 460 kts | 306° |
| 2026-04-24 21:25 | 78.38194 | 147.50686 | 34008 ft | 459 kts | 306° |
| 2026-04-24 21:25 | 78.42035 | 147.25351 | 34009 ft | 459 kts | 306° |
| 2026-04-24 21:26 | 78.45858 | 146.99839 | 34013 ft | 459 kts | 306° |
| 2026-04-24 21:26 | 78.49659 | 146.74167 | 34009 ft | 459 kts | 305° |
| 2026-04-24 21:27 | 78.53433 | 146.48337 | 34009 ft | 459 kts | 305° |
| 2026-04-24 21:27 | 78.57165 | 146.22489 | 34013 ft | 459 kts | 305° |
| 2026-04-24 21:28 | 78.60894 | 145.96332 | 34012 ft | 459 kts | 304° |
| 2026-04-24 21:28 | 78.64603 | 145.69980 | 34004 ft | 459 kts | 304° |
| 2026-04-24 21:29 | 78.68282 | 145.43512 | 33999 ft | 458 kts | 304° |
| 2026-04-24 21:29 | 78.71930 | 145.16896 | 33998 ft | 458 kts | 304° |
| 2026-04-24 21:30 | 78.75537 | 144.90304 | 33991 ft | 458 kts | 303° |
| 2026-04-24 21:30 | 78.79136 | 144.63385 | 33993 ft | 457 kts | 303° |
| 2026-04-24 21:31 | 78.82707 | 144.36311 | 33989 ft | 457 kts | 303° |
| 2026-04-24 21:31 | 78.86252 | 144.09083 | 33990 ft | 456 kts | 302° |
| 2026-04-24 21:32 | 78.89747 | 143.81895 | 33993 ft | 456 kts | 302° |
| 2026-04-24 21:32 | 78.93235 | 143.54398 | 33991 ft | 456 kts | 302° |
| 2026-04-24 21:33 | 78.96704 | 143.26699 | 33986 ft | 456 kts | 302° |
| 2026-04-24 21:33 | 79.00151 | 142.98817 | 33984 ft | 457 kts | 302° |
| 2026-04-24 21:34 | 79.03729 | 142.71172 | 33978 ft | 459 kts | 303° |
| 2026-04-24 21:34 | 79.07368 | 142.43834 | 33963 ft | 460 kts | 303° |
| 2026-04-24 21:35 | 79.11008 | 142.16061 | 33970 ft | 460 kts | 303° |
| 2026-04-24 21:35 | 79.14607 | 141.88017 | 33965 ft | 460 kts | 302° |
| 2026-04-24 21:36 | 79.18175 | 141.59729 | 33967 ft | 460 kts | 302° |
| 2026-04-24 21:36 | 79.21685 | 141.31484 | 33963 ft | 460 kts | 302° |
| 2026-04-24 21:37 | 79.25195 | 141.02856 | 33963 ft | 460 kts | 301° |
| 2026-04-24 21:37 | 79.28675 | 140.74088 | 33949 ft | 460 kts | 301° |
| 2026-04-24 21:38 | 79.32128 | 140.45138 | 33953 ft | 459 kts | 301° |
| 2026-04-24 21:38 | 79.35531 | 140.16222 | 33959 ft | 459 kts | 301° |
| 2026-04-24 21:39 | 79.38930 | 139.86900 | 33954 ft | 460 kts | 300° |
| 2026-04-24 21:39 | 79.42305 | 139.57348 | 33954 ft | 460 kts | 300° |
| 2026-04-24 21:40 | 79.45656 | 139.27603 | 33950 ft | 460 kts | 300° |
| 2026-04-24 21:40 | 79.48979 | 138.97667 | 33952 ft | 460 kts | 299° |
| 2026-04-24 21:41 | 79.52252 | 138.67746 | 33949 ft | 461 kts | 299° |
| 2026-04-24 21:41 | 79.55519 | 138.37420 | 33952 ft | 461 kts | 298° |
| 2026-04-24 21:42 | 79.58759 | 138.06899 | 33954 ft | 461 kts | 298° |
| 2026-04-24 21:42 | 79.61977 | 137.76126 | 33958 ft | 462 kts | 298° |
| 2026-04-24 21:43 | 79.65151 | 137.45301 | 33949 ft | 463 kts | 298° |
| 2026-04-24 21:43 | 79.68312 | 137.14108 | 33957 ft | 462 kts | 297° |
| 2026-04-24 21:44 | 79.71443 | 136.82770 | 33951 ft | 461 kts | 297° |
| 2026-04-24 21:44 | 79.74539 | 136.51266 | 33952 ft | 461 kts | 297° |
| 2026-04-24 21:45 | 79.77585 | 136.19775 | 33950 ft | 462 kts | 296° |
| 2026-04-24 21:45 | 79.80629 | 135.87824 | 33957 ft | 464 kts | 296° |
| 2026-04-24 21:46 | 79.83653 | 135.55555 | 33958 ft | 465 kts | 296° |
| 2026-04-24 21:46 | 79.86652 | 135.22992 | 33960 ft | 466 kts | 295° |
| 2026-04-24 21:47 | 79.89593 | 134.90523 | 33952 ft | 464 kts | 295° |
| 2026-04-24 21:47 | 79.92516 | 134.57731 | 33942 ft | 463 kts | 295° |
| 2026-04-24 21:48 | 79.95400 | 134.24826 | 33951 ft | 463 kts | 294° |
| 2026-04-24 21:48 | 79.98253 | 133.91700 | 33966 ft | 464 kts | 294° |
| 2026-04-24 21:49 | 80.01078 | 133.58369 | 33970 ft | 464 kts | 294° |
| 2026-04-24 21:49 | 80.03857 | 133.24969 | 33958 ft | 466 kts | 294° |
| 2026-04-24 21:50 | 80.06631 | 132.91031 | 33962 ft | 467 kts | 293° |
| 2026-04-24 21:50 | 80.09380 | 132.56794 | 33967 ft | 469 kts | 293° |
| 2026-04-24 21:51 | 80.12081 | 132.22536 | 33964 ft | 469 kts | 292° |
| 2026-04-24 21:51 | 80.14769 | 131.87844 | 33962 ft | 469 kts | 292° |
| 2026-04-24 21:52 | 80.17418 | 131.53003 | 33958 ft | 468 kts | 292° |
| 2026-04-24 21:52 | 80.20023 | 131.18062 | 33966 ft | 467 kts | 291° |
| 2026-04-24 21:53 | 80.22586 | 130.83030 | 34047 ft | 466 kts | 291° |
| 2026-04-24 21:53 | 80.25094 | 130.48082 | 34049 ft | 467 kts | 291° |
| 2026-04-24 21:54 | 80.27589 | 130.12636 | 34046 ft | 468 kts | 290° |
| 2026-04-24 21:54 | 80.30054 | 129.76895 | 34018 ft | 469 kts | 290° |
| 2026-04-24 21:55 | 80.32486 | 129.40935 | 34016 ft | 469 kts | 290° |
| 2026-04-24 21:55 | 80.34861 | 129.05069 | 34029 ft | 469 kts | 290° |
| 2026-04-24 21:56 | 80.37220 | 128.68730 | 34031 ft | 470 kts | 289° |
| 2026-04-24 21:56 | 80.39541 | 128.32209 | 34018 ft | 470 kts | 289° |
| 2026-04-24 21:57 | 80.41810 | 127.95684 | 33982 ft | 471 kts | 288° |
| 2026-04-24 21:57 | 80.44057 | 127.58747 | 33970 ft | 470 kts | 288° |
| 2026-04-24 21:58 | 80.46264 | 127.21667 | 33963 ft | 470 kts | 288° |
| 2026-04-24 21:58 | 80.48426 | 126.84517 | 33958 ft | 469 kts | 287° |
| 2026-04-24 21:59 | 80.50530 | 126.47499 | 33961 ft | 468 kts | 287° |
| 2026-04-24 21:59 | 80.52607 | 126.10132 | 33963 ft | 467 kts | 287° |
| 2026-04-24 22:00 | 80.54642 | 125.72623 | 33960 ft | 467 kts | 286° |
| 2026-04-24 22:00 | 80.56638 | 125.34961 | 33968 ft | 468 kts | 286° |
| 2026-04-24 22:01 | 80.58594 | 124.97115 | 33971 ft | 468 kts | 285° |
| 2026-04-24 22:01 | 80.60501 | 124.59313 | 33983 ft | 469 kts | 285° |
| 2026-04-24 22:02 | 80.62382 | 124.21051 | 33981 ft | 469 kts | 285° |
| 2026-04-24 22:02 | 80.64224 | 123.82604 | 33978 ft | 470 kts | 284° |
| 2026-04-24 22:03 | 80.66026 | 123.44055 | 33985 ft | 469 kts | 284° |
| 2026-04-24 22:03 | 80.67781 | 123.05264 | 33990 ft | 470 kts | 284° |
| 2026-04-24 22:04 | 80.69485 | 122.66603 | 34006 ft | 470 kts | 283° |
| 2026-04-24 22:04 | 80.71161 | 122.27481 | 34013 ft | 470 kts | 283° |
| 2026-04-24 22:05 | 80.72797 | 121.88258 | 34026 ft | 471 kts | 283° |
| 2026-04-24 22:05 | 80.74393 | 121.48802 | 34032 ft | 471 kts | 282° |
| 2026-04-24 22:06 | 80.75938 | 121.09420 | 34029 ft | 472 kts | 282° |
| 2026-04-24 22:06 | 80.77448 | 120.69648 | 34026 ft | 472 kts | 282° |
| 2026-04-24 22:07 | 80.78912 | 120.29782 | 34110 ft | 470 kts | 281° |
| 2026-04-24 22:07 | 80.80329 | 119.89941 | 34210 ft | 469 kts | 281° |
| 2026-04-24 22:08 | 80.81691 | 119.50252 | 34223 ft | 471 kts | 281° |
| 2026-04-24 22:08 | 80.83026 | 119.09933 | 34192 ft | 473 kts | 280° |
| 2026-04-24 22:09 | 80.84318 | 118.69483 | 34186 ft | 474 kts | 280° |
| 2026-04-24 22:09 | 80.85570 | 118.28843 | 34184 ft | 474 kts | 279° |
| 2026-04-24 22:10 | 80.86769 | 117.88321 | 34185 ft | 474 kts | 279° |
| 2026-04-24 22:10 | 80.87928 | 117.47452 | 34179 ft | 474 kts | 279° |
| 2026-04-24 22:11 | 80.89042 | 117.06385 | 34087 ft | 475 kts | 278° |
| 2026-04-24 22:11 | 80.90113 | 116.65228 | 34063 ft | 475 kts | 278° |
| 2026-04-24 22:12 | 80.91133 | 116.24051 | 34052 ft | 474 kts | 277° |
| 2026-04-24 22:12 | 80.92100 | 115.83168 | 34053 ft | 472 kts | 277° |
| 2026-04-24 22:13 | 80.93026 | 115.42003 | 34044 ft | 472 kts | 277° |
| 2026-04-24 22:13 | 80.93906 | 115.00808 | 34048 ft | 472 kts | 277° |
| 2026-04-24 22:14 | 80.94746 | 114.59514 | 34047 ft | 472 kts | 276° |
| 2026-04-24 22:14 | 80.95519 | 114.18322 | 34047 ft | 473 kts | 276° |
| 2026-04-24 22:15 | 80.96261 | 113.76696 | 33990 ft | 475 kts | 275° |
| 2026-04-24 22:15 | 80.96962 | 113.34837 | 33970 ft | 476 kts | 275° |
| 2026-04-24 22:16 | 80.97613 | 112.92947 | 33961 ft | 475 kts | 275° |
| 2026-04-24 22:16 | 80.98214 | 112.51373 | 34048 ft | 473 kts | 274° |
| 2026-04-24 22:17 | 80.98769 | 112.09586 | 34059 ft | 473 kts | 274° |
| 2026-04-24 22:17 | 80.99279 | 111.67725 | 34055 ft | 474 kts | 274° |
| 2026-04-24 22:18 | 80.99743 | 111.25764 | 34056 ft | 474 kts | 272° |
| 2026-04-24 22:18 | 80.99357 | 110.83829 | 34057 ft | 473 kts | 260° |
| 2026-04-24 22:19 | 80.97835 | 110.43264 | 34011 ft | 475 kts | 255° |
| 2026-04-24 22:19 | 80.96141 | 110.02466 | 33919 ft | 478 kts | 255° |
| 2026-04-24 22:20 | 80.94430 | 109.61631 | 33866 ft | 478 kts | 255° |
| 2026-04-24 22:20 | 80.92696 | 109.20952 | 33851 ft | 477 kts | 254° |
| 2026-04-24 22:21 | 80.90941 | 108.80820 | 33850 ft | 476 kts | 254° |
| 2026-04-24 22:21 | 80.89134 | 108.40715 | 33848 ft | 474 kts | 253° |
| 2026-04-24 22:22 | 80.87287 | 108.00814 | 33842 ft | 474 kts | 253° |
| 2026-04-24 22:22 | 80.85392 | 107.61036 | 33808 ft | 475 kts | 253° |
| 2026-04-24 22:23 | 80.83466 | 107.21676 | 33812 ft | 475 kts | 252° |
| 2026-04-24 22:23 | 80.81485 | 106.82158 | 33805 ft | 476 kts | 252° |
| 2026-04-24 22:24 | 80.79455 | 106.42748 | 33799 ft | 477 kts | 252° |
| 2026-04-24 22:24 | 80.77378 | 106.03442 | 33794 ft | 477 kts | 251° |
| 2026-04-24 22:25 | 80.75275 | 105.64557 | 33798 ft | 478 kts | 251° |
| 2026-04-24 22:25 | 80.73109 | 105.25516 | 33798 ft | 479 kts | 251° |
| 2026-04-24 22:26 | 80.70900 | 104.86613 | 33796 ft | 478 kts | 250° |
| 2026-04-24 22:26 | 80.68653 | 104.47958 | 33793 ft | 478 kts | 250° |
| 2026-04-24 22:27 | 80.66366 | 104.09540 | 33796 ft | 477 kts | 249° |
| 2026-04-24 22:27 | 80.64055 | 103.71577 | 33795 ft | 477 kts | 249° |
| 2026-04-24 22:28 | 80.61687 | 103.33552 | 33797 ft | 477 kts | 249° |
| 2026-04-24 22:28 | 80.59279 | 102.95680 | 33798 ft | 477 kts | 249° |
| 2026-04-24 22:29 | 80.55605 | 102.39455 | 33796 ft | 478 kts | 248° |
| 2026-04-24 22:29 | 80.53088 | 102.01987 | 33798 ft | 479 kts | 248° |
| 2026-04-24 22:30 | 80.50528 | 101.64624 | 33797 ft | 480 kts | 247° |
| 2026-04-24 22:30 | 80.47929 | 101.27437 | 33796 ft | 480 kts | 247° |
| 2026-04-24 22:31 | 80.45288 | 100.90462 | 33798 ft | 480 kts | 246° |
| 2026-04-24 22:31 | 80.42626 | 100.53942 | 33791 ft | 479 kts | 246° |
| 2026-04-24 22:32 | 80.39914 | 100.17450 | 33793 ft | 479 kts | 246° |
| 2026-04-24 22:32 | 80.37166 | 99.81184 | 33796 ft | 478 kts | 245° |
| 2026-04-24 22:33 | 80.34400 | 99.45370 | 33787 ft | 479 kts | 245° |
| 2026-04-24 22:33 | 80.31577 | 99.09517 | 33788 ft | 479 kts | 245° |
| 2026-04-24 22:34 | 80.28723 | 98.73910 | 33787 ft | 478 kts | 244° |
| 2026-04-24 22:34 | 80.25832 | 98.38567 | 33785 ft | 477 kts | 244° |
| 2026-04-24 22:35 | 80.22905 | 98.03427 | 33785 ft | 477 kts | 244° |
| 2026-04-24 22:35 | 80.19969 | 97.68767 | 33788 ft | 477 kts | 243° |
| 2026-04-24 22:36 | 80.16975 | 97.34048 | 33787 ft | 477 kts | 243° |
| 2026-04-24 22:36 | 80.13940 | 96.99504 | 33738 ft | 478 kts | 243° |
| 2026-04-24 22:37 | 80.10868 | 96.65152 | 33735 ft | 478 kts | 242° |
| 2026-04-24 22:37 | 80.07786 | 96.31263 | 33725 ft | 477 kts | 242° |
| 2026-04-24 22:38 | 80.04655 | 95.97413 | 33725 ft | 477 kts | 242° |
| 2026-04-24 22:38 | 80.01493 | 95.63806 | 33732 ft | 476 kts | 241° |
| 2026-04-24 22:39 | 79.98297 | 95.30414 | 33732 ft | 476 kts | 241° |
| 2026-04-24 22:39 | 79.95088 | 94.97442 | 33727 ft | 477 kts | 240° |
| 2026-04-24 22:40 | 79.91821 | 94.64421 | 33734 ft | 478 kts | 240° |
| 2026-04-24 22:40 | 79.88518 | 94.31554 | 33734 ft | 478 kts | 240° |
| 2026-04-24 22:41 | 79.85172 | 93.98821 | 33733 ft | 479 kts | 240° |
| 2026-04-24 22:41 | 79.81794 | 93.66297 | 33729 ft | 480 kts | 239° |
| 2026-04-24 22:42 | 79.78404 | 93.34181 | 33729 ft | 479 kts | 239° |
| 2026-04-24 22:42 | 79.74959 | 93.02030 | 33733 ft | 480 kts | 239° |
| 2026-04-24 22:43 | 79.71480 | 92.70104 | 33745 ft | 479 kts | 238° |
| 2026-04-24 22:43 | 79.67978 | 92.38455 | 33751 ft | 478 kts | 238° |
| 2026-04-24 22:44 | 79.64481 | 92.07292 | 33757 ft | 477 kts | 238° |
| 2026-04-24 22:44 | 79.60938 | 91.76223 | 33763 ft | 476 kts | 238° |
| 2026-04-24 22:45 | 79.57377 | 91.45398 | 33753 ft | 475 kts | 237° |
| 2026-04-24 22:45 | 79.53860 | 91.14548 | 33758 ft | 475 kts | 242° |
| 2026-04-24 22:46 | 79.51247 | 90.81494 | 33752 ft | 476 kts | 252° |
| 2026-04-24 22:46 | 79.49215 | 90.46946 | 33762 ft | 477 kts | 252° |
| 2026-04-24 22:47 | 79.47110 | 90.12428 | 33757 ft | 479 kts | 251° |
| 2026-04-24 22:47 | 79.44948 | 89.78038 | 33759 ft | 479 kts | 251° |
| 2026-04-24 22:48 | 79.42739 | 89.43724 | 33764 ft | 480 kts | 250° |
| 2026-04-24 22:48 | 79.40509 | 89.09801 | 33761 ft | 480 kts | 250° |
| 2026-04-24 22:49 | 79.38232 | 88.75817 | 33757 ft | 479 kts | 250° |
| 2026-04-24 22:49 | 79.35923 | 88.42055 | 33756 ft | 478 kts | 250° |
| 2026-04-24 22:50 | 79.33591 | 88.08689 | 33756 ft | 477 kts | 249° |
| 2026-04-24 22:50 | 79.31219 | 87.75330 | 33757 ft | 476 kts | 249° |
| 2026-04-24 22:51 | 79.28815 | 87.42163 | 33770 ft | 475 kts | 249° |
| 2026-04-24 22:51 | 79.26378 | 87.09167 | 33748 ft | 475 kts | 249° |
| 2026-04-24 22:52 | 79.23907 | 86.76327 | 33722 ft | 475 kts | 248° |
| 2026-04-24 22:52 | 79.21422 | 86.43895 | 33711 ft | 474 kts | 248° |
| 2026-04-24 22:53 | 79.18889 | 86.11461 | 33713 ft | 473 kts | 248° |
| 2026-04-24 22:53 | 79.16329 | 85.79246 | 33712 ft | 472 kts | 247° |
| 2026-04-24 22:54 | 79.13738 | 85.47206 | 33709 ft | 472 kts | 247° |
| 2026-04-24 22:54 | 79.11138 | 85.15590 | 33705 ft | 472 kts | 246° |
| 2026-04-24 22:55 | 79.08484 | 84.83902 | 33706 ft | 472 kts | 246° |
| 2026-04-24 22:55 | 79.05795 | 84.52333 | 33701 ft | 472 kts | 246° |
| 2026-04-24 22:56 | 79.03074 | 84.20891 | 33704 ft | 473 kts | 245° |
| 2026-04-24 22:56 | 79.00337 | 83.89788 | 33703 ft | 473 kts | 245° |
| 2026-04-24 22:57 | 78.97543 | 83.58621 | 33707 ft | 473 kts | 244° |
| 2026-04-24 22:57 | 78.94721 | 83.27561 | 33702 ft | 473 kts | 244° |
| 2026-04-24 22:58 | 78.91870 | 82.96707 | 33703 ft | 473 kts | 244° |
| 2026-04-24 22:58 | 78.89005 | 82.66236 | 33710 ft | 472 kts | 243° |
| 2026-04-24 22:59 | 78.86097 | 82.35751 | 33713 ft | 472 kts | 243° |
| 2026-04-24 23:00 | 78.81677 | 81.90321 | 33711 ft | 472 kts | 243° |
| 2026-04-24 23:00 | 78.78715 | 81.60456 | 33713 ft | 472 kts | 242° |
| 2026-04-24 23:01 | 78.75702 | 81.30536 | 33712 ft | 472 kts | 242° |
| 2026-04-24 23:01 | 78.72656 | 81.00766 | 33714 ft | 472 kts | 242° |
| 2026-04-24 23:02 | 78.69583 | 80.71145 | 33712 ft | 472 kts | 241° |
| 2026-04-24 23:02 | 78.66500 | 80.41881 | 33721 ft | 472 kts | 241° |
| 2026-04-24 23:03 | 78.63367 | 80.12543 | 33720 ft | 473 kts | 240° |
| 2026-04-24 23:03 | 78.60195 | 79.83310 | 33722 ft | 474 kts | 240° |
| 2026-04-24 23:04 | 78.56989 | 79.54196 | 33721 ft | 475 kts | 240° |
| 2026-04-24 23:04 | 78.53751 | 79.25215 | 33725 ft | 475 kts | 240° |
| 2026-04-24 23:05 | 78.50504 | 78.96557 | 33723 ft | 476 kts | 239° |
| 2026-04-24 23:05 | 78.47206 | 78.67843 | 33720 ft | 476 kts | 239° |
| 2026-04-24 23:06 | 78.43877 | 78.39291 | 33721 ft | 476 kts | 239° |
| 2026-04-24 23:06 | 78.40524 | 78.10917 | 33721 ft | 476 kts | 238° |
| 2026-04-24 23:07 | 78.37144 | 77.82698 | 33722 ft | 476 kts | 238° |
| 2026-04-24 23:07 | 78.33759 | 77.54837 | 33723 ft | 475 kts | 238° |
| 2026-04-24 23:08 | 78.30325 | 77.26946 | 33722 ft | 475 kts | 238° |
| 2026-04-24 23:08 | 78.26862 | 76.99209 | 33722 ft | 475 kts | 237° |
| 2026-04-24 23:09 | 78.23372 | 76.71656 | 33720 ft | 475 kts | 237° |
| 2026-04-24 23:09 | 78.19884 | 76.44475 | 33721 ft | 475 kts | 237° |
| 2026-04-24 23:10 | 78.16349 | 76.17239 | 33721 ft | 475 kts | 236° |
| 2026-04-24 23:10 | 78.12784 | 75.90151 | 33722 ft | 476 kts | 236° |
| 2026-04-24 23:11 | 78.09185 | 75.63180 | 33723 ft | 477 kts | 236° |
| 2026-04-24 23:11 | 78.05580 | 75.36515 | 33733 ft | 477 kts | 236° |
| 2026-04-24 23:12 | 78.01933 | 75.09857 | 33733 ft | 476 kts | 235° |
| 2026-04-24 23:12 | 77.98255 | 74.83345 | 33729 ft | 476 kts | 235° |
| 2026-04-24 23:13 | 77.94555 | 74.57024 | 33729 ft | 476 kts | 234° |
| 2026-04-24 23:13 | 77.90829 | 74.30833 | 33734 ft | 477 kts | 234° |
| 2026-04-24 23:14 | 77.87104 | 74.04962 | 33729 ft | 477 kts | 234° |
| 2026-04-24 23:14 | 77.83327 | 73.79067 | 33733 ft | 477 kts | 233° |
| 2026-04-24 23:15 | 77.79524 | 73.53330 | 33728 ft | 477 kts | 233° |
| 2026-04-24 23:15 | 77.75689 | 73.27711 | 33731 ft | 478 kts | 233° |
| 2026-04-24 23:16 | 77.71863 | 73.02409 | 33729 ft | 478 kts | 233° |
| 2026-04-24 23:16 | 77.67987 | 72.77100 | 33731 ft | 478 kts | 233° |
| 2026-04-24 23:17 | 77.64082 | 72.51938 | 33725 ft | 478 kts | 232° |
| 2026-04-24 23:17 | 77.60160 | 72.26961 | 33733 ft | 478 kts | 232° |
| 2026-04-24 23:18 | 77.56211 | 72.02117 | 33732 ft | 478 kts | 232° |
| 2026-04-24 23:18 | 77.52265 | 71.77575 | 33708 ft | 479 kts | 232° |
| 2026-04-24 23:19 | 77.48262 | 71.52973 | 33702 ft | 479 kts | 231° |
| 2026-04-24 23:19 | 77.44242 | 71.28568 | 33702 ft | 479 kts | 231° |
| 2026-04-24 23:20 | 77.40196 | 71.04284 | 33702 ft | 479 kts | 231° |
| 2026-04-24 23:20 | 77.36162 | 70.80350 | 33701 ft | 478 kts | 231° |
| 2026-04-24 23:21 | 77.32077 | 70.56389 | 33702 ft | 479 kts | 230° |
| 2026-04-24 23:21 | 77.27970 | 70.32589 | 33703 ft | 479 kts | 230° |
| 2026-04-24 23:22 | 77.23841 | 70.08924 | 33702 ft | 479 kts | 230° |
| 2026-04-24 23:22 | 77.19714 | 69.85542 | 33702 ft | 479 kts | 230° |
| 2026-04-24 23:23 | 77.15541 | 69.62165 | 33704 ft | 479 kts | 230° |
| 2026-04-24 23:23 | 77.11350 | 69.38947 | 33702 ft | 479 kts | 229° |
| 2026-04-24 23:24 | 77.07131 | 69.15837 | 33704 ft | 480 kts | 229° |
| 2026-04-24 23:24 | 77.02889 | 68.92845 | 33696 ft | 480 kts | 229° |
| 2026-04-24 23:25 | 76.98656 | 68.70149 | 33694 ft | 480 kts | 228° |
| 2026-04-24 23:25 | 76.93831 | 68.50027 | 33697 ft | 476 kts | 214° |
| 2026-04-24 23:26 | 76.88170 | 68.35147 | 33701 ft | 473 kts | 205° |
| 2026-04-24 23:26 | 76.82290 | 68.22097 | 33692 ft | 474 kts | 205° |
| 2026-04-24 23:27 | 76.76453 | 68.09058 | 33692 ft | 474 kts | 206° |
| 2026-04-24 23:27 | 76.70584 | 67.95959 | 33693 ft | 474 kts | 206° |
| 2026-04-24 23:28 | 76.64698 | 67.82935 | 33697 ft | 475 kts | 205° |
| 2026-04-24 23:28 | 76.58801 | 67.70020 | 33693 ft | 475 kts | 205° |
| 2026-04-24 23:29 | 76.52897 | 67.57219 | 33693 ft | 476 kts | 205° |
| 2026-04-24 23:29 | 76.47018 | 67.44588 | 33695 ft | 476 kts | 205° |
| 2026-04-24 23:30 | 76.41087 | 67.31977 | 33691 ft | 476 kts | 205° |
| 2026-04-24 23:30 | 76.35149 | 67.19491 | 33696 ft | 476 kts | 205° |
| 2026-04-24 23:31 | 76.29214 | 67.07097 | 33696 ft | 476 kts | 205° |
| 2026-04-24 23:31 | 76.23319 | 66.94900 | 33698 ft | 475 kts | 205° |
| 2026-04-24 23:32 | 76.17390 | 66.82754 | 33704 ft | 474 kts | 204° |
| 2026-04-24 23:32 | 76.11448 | 66.70712 | 33703 ft | 475 kts | 204° |
| 2026-04-24 23:33 | 76.05505 | 66.58759 | 33705 ft | 475 kts | 204° |
| 2026-04-24 23:33 | 75.99675 | 66.46316 | 33713 ft | 476 kts | 210° |
| 2026-04-24 23:34 | 75.94333 | 66.30203 | 33719 ft | 477 kts | 216° |
| 2026-04-24 23:34 | 75.89064 | 66.13627 | 33714 ft | 477 kts | 215° |
| 2026-04-24 23:35 | 75.84661 | 66.00049 | 33710 ft | 477 kts | 215° |
| 2026-04-24 23:35 | 75.79348 | 65.83856 | 33707 ft | 477 kts | 215° |
| 2026-04-24 23:36 | 75.73142 | 65.65140 | 33702 ft | 478 kts | 215° |
| 2026-04-24 23:36 | 75.67791 | 65.49152 | 33704 ft | 478 kts | 215° |
| 2026-04-24 23:37 | 75.63338 | 65.35947 | 33701 ft | 478 kts | 214° |
| 2026-04-24 23:37 | 75.55288 | 65.12336 | 33703 ft | 478 kts | 214° |
| 2026-04-24 23:38 | 75.49910 | 64.96753 | 33702 ft | 477 kts | 214° |
| 2026-04-24 23:38 | 75.44525 | 64.81279 | 33701 ft | 477 kts | 214° |
| 2026-04-24 23:39 | 75.39176 | 64.66053 | 33703 ft | 477 kts | 214° |
| 2026-04-24 23:39 | 75.33781 | 64.50837 | 33702 ft | 476 kts | 214° |
| 2026-04-24 23:40 | 75.28370 | 64.35715 | 33701 ft | 477 kts | 214° |
| 2026-04-24 23:40 | 75.22949 | 64.20697 | 33703 ft | 477 kts | 214° |
| 2026-04-24 23:41 | 75.17556 | 64.05885 | 33695 ft | 477 kts | 213° |
| 2026-04-24 23:41 | 75.12122 | 63.91090 | 33691 ft | 476 kts | 213° |
| 2026-04-24 23:42 | 75.06676 | 63.76408 | 33684 ft | 477 kts | 213° |
| 2026-04-24 23:42 | 75.01217 | 63.61813 | 33685 ft | 477 kts | 213° |
| 2026-04-24 23:43 | 74.95784 | 63.47428 | 33633 ft | 477 kts | 213° |
| 2026-04-24 23:43 | 74.90301 | 63.33022 | 33629 ft | 477 kts | 213° |
| 2026-04-24 23:44 | 74.84813 | 63.18718 | 33626 ft | 477 kts | 213° |
| 2026-04-24 23:44 | 74.79325 | 63.04545 | 33618 ft | 477 kts | 213° |
| 2026-04-24 23:45 | 74.73864 | 62.90569 | 33619 ft | 476 kts | 213° |
| 2026-04-24 23:45 | 74.68357 | 62.76608 | 33619 ft | 476 kts | 212° |
| 2026-04-24 23:46 | 74.62850 | 62.62748 | 33620 ft | 476 kts | 212° |
| 2026-04-24 23:46 | 74.57334 | 62.48989 | 33617 ft | 476 kts | 212° |
| 2026-04-24 23:47 | 74.51852 | 62.35429 | 33621 ft | 475 kts | 212° |
| 2026-04-24 23:47 | 74.46326 | 62.21876 | 33614 ft | 475 kts | 212° |
| 2026-04-24 23:48 | 74.40794 | 62.08427 | 33619 ft | 474 kts | 212° |
| 2026-04-24 23:48 | 74.35260 | 61.95079 | 33617 ft | 475 kts | 212° |
| 2026-04-24 23:49 | 74.29713 | 61.81802 | 33618 ft | 475 kts | 212° |
| 2026-04-24 23:49 | 74.24196 | 61.68717 | 33618 ft | 475 kts | 212° |
| 2026-04-24 23:50 | 74.18634 | 61.55635 | 33619 ft | 475 kts | 211° |
| 2026-04-24 23:50 | 74.13058 | 61.42629 | 33615 ft | 476 kts | 211° |
| 2026-04-24 23:51 | 74.07475 | 61.29717 | 33619 ft | 475 kts | 211° |
| 2026-04-24 23:51 | 74.01919 | 61.16957 | 33619 ft | 475 kts | 211° |
| 2026-04-24 23:52 | 73.96318 | 61.04205 | 33626 ft | 475 kts | 211° |
| 2026-04-24 23:52 | 73.90713 | 60.91551 | 33615 ft | 475 kts | 211° |
| 2026-04-24 23:53 | 73.85100 | 60.78984 | 33608 ft | 475 kts | 211° |
| 2026-04-24 23:53 | 73.79528 | 60.66603 | 33609 ft | 474 kts | 211° |
| 2026-04-24 23:54 | 73.73916 | 60.54224 | 33609 ft | 474 kts | 211° |
| 2026-04-24 23:54 | 73.68293 | 60.41930 | 33610 ft | 474 kts | 210° |
| 2026-04-24 23:55 | 73.62669 | 60.29731 | 33610 ft | 474 kts | 210° |
| 2026-04-24 23:55 | 73.57069 | 60.17682 | 33609 ft | 474 kts | 210° |
| 2026-04-24 23:56 | 73.51424 | 60.05631 | 33611 ft | 474 kts | 210° |
| 2026-04-24 23:56 | 73.45769 | 59.93643 | 33610 ft | 475 kts | 210° |
| 2026-04-24 23:57 | 73.40103 | 59.81737 | 33609 ft | 475 kts | 210° |
| 2026-04-24 23:57 | 73.34477 | 59.70000 | 33611 ft | 474 kts | 210° |
| 2026-04-24 23:58 | 73.28806 | 59.58268 | 33608 ft | 474 kts | 210° |
| 2026-04-24 23:58 | 73.23126 | 59.46612 | 33606 ft | 474 kts | 210° |
| 2026-04-24 23:59 | 73.17454 | 59.35037 | 33614 ft | 473 kts | 209° |
| 2026-04-24 23:59 | 73.11776 | 59.23548 | 33617 ft | 473 kts | 209° |
| 2026-04-25 00:00 | 73.06137 | 59.12224 | 33622 ft | 473 kts | 209° |
| 2026-04-25 00:00 | 73.00450 | 59.00890 | 33622 ft | 473 kts | 210° |
| 2026-04-25 00:01 | 72.94942 | 58.88635 | 33625 ft | 473 kts | 212° |
| 2026-04-25 00:01 | 72.89469 | 58.76251 | 33617 ft | 473 kts | 212° |
| 2026-04-25 00:02 | 72.84015 | 58.64049 | 33604 ft | 473 kts | 212° |
| 2026-04-25 00:02 | 72.78513 | 58.51855 | 33598 ft | 473 kts | 212° |
| 2026-04-25 00:03 | 72.73011 | 58.39751 | 33600 ft | 472 kts | 212° |
| 2026-04-25 00:03 | 72.67498 | 58.27706 | 33600 ft | 472 kts | 212° |
| 2026-04-25 00:04 | 72.62022 | 58.15840 | 33599 ft | 472 kts | 211° |
| 2026-04-25 00:04 | 72.56499 | 58.03961 | 33600 ft | 472 kts | 211° |
| 2026-04-25 00:05 | 72.50985 | 57.92180 | 33599 ft | 471 kts | 211° |
| 2026-04-25 00:05 | 72.45459 | 57.80465 | 33601 ft | 471 kts | 211° |
| 2026-04-25 00:06 | 72.39964 | 57.68904 | 33599 ft | 471 kts | 211° |
| 2026-04-25 00:06 | 72.34420 | 57.57313 | 33601 ft | 472 kts | 211° |
| 2026-04-25 00:07 | 72.28873 | 57.45805 | 33600 ft | 472 kts | 211° |
| 2026-04-25 00:07 | 72.23314 | 57.34358 | 33597 ft | 471 kts | 211° |
| 2026-04-25 00:08 | 72.17750 | 57.22983 | 33590 ft | 472 kts | 211° |
| 2026-04-25 00:08 | 72.12215 | 57.11752 | 33592 ft | 472 kts | 210° |
| 2026-04-25 00:09 | 72.06636 | 57.00493 | 33589 ft | 472 kts | 210° |
| 2026-04-25 00:09 | 72.01045 | 56.89322 | 33590 ft | 472 kts | 210° |
| 2026-04-25 00:10 | 71.95458 | 56.78219 | 33599 ft | 471 kts | 210° |
| 2026-04-25 00:10 | 71.89914 | 56.67294 | 33599 ft | 470 kts | 210° |
| 2026-04-25 00:11 | 71.84332 | 56.56356 | 33598 ft | 470 kts | 210° |
| 2026-04-25 00:11 | 71.78749 | 56.45491 | 33626 ft | 469 kts | 210° |
| 2026-04-25 00:12 | 71.73157 | 56.34693 | 33625 ft | 470 kts | 210° |
| 2026-04-25 00:12 | 71.67592 | 56.24024 | 33628 ft | 470 kts | 210° |
| 2026-04-25 00:13 | 71.61982 | 56.13335 | 33620 ft | 471 kts | 210° |
| 2026-04-25 00:13 | 71.56354 | 56.02684 | 33627 ft | 470 kts | 210° |
| 2026-04-25 00:14 | 71.50746 | 55.92154 | 33611 ft | 468 kts | 210° |
| 2026-04-25 00:14 | 71.45168 | 55.81747 | 33611 ft | 465 kts | 210° |
| 2026-04-25 00:15 | 71.39607 | 55.71441 | 33615 ft | 463 kts | 210° |
| 2026-04-25 00:15 | 71.34105 | 55.61315 | 33621 ft | 462 kts | 210° |
| 2026-04-25 00:16 | 71.28567 | 55.51190 | 33622 ft | 461 kts | 210° |
| 2026-04-25 00:16 | 71.23025 | 55.41125 | 33620 ft | 461 kts | 210° |
| 2026-04-25 00:17 | 71.17514 | 55.31181 | 33620 ft | 462 kts | 210° |
| 2026-04-25 00:17 | 71.11950 | 55.21205 | 33622 ft | 463 kts | 210° |
| 2026-04-25 00:18 | 71.06373 | 55.11266 | 33619 ft | 463 kts | 210° |
| 2026-04-25 00:18 | 71.00662 | 55.02115 | 33606 ft | 463 kts | 201° |
| 2026-04-25 00:19 | 70.94515 | 54.96211 | 33609 ft | 464 kts | 192° |
| 2026-04-25 00:19 | 70.88238 | 54.92273 | 33609 ft | 464 kts | 192° |
| 2026-04-25 00:20 | 70.81917 | 54.88241 | 33614 ft | 464 kts | 192° |
| 2026-04-25 00:20 | 70.75607 | 54.84187 | 33607 ft | 464 kts | 192° |
| 2026-04-25 00:21 | 70.69299 | 54.80146 | 33612 ft | 463 kts | 192° |
| 2026-04-25 00:21 | 70.63038 | 54.76158 | 33608 ft | 463 kts | 192° |
| 2026-04-25 00:22 | 70.56747 | 54.72179 | 33607 ft | 462 kts | 192° |
| 2026-04-25 00:22 | 70.50463 | 54.68224 | 33609 ft | 461 kts | 192° |
| 2026-04-25 00:23 | 70.44191 | 54.64304 | 33611 ft | 460 kts | 192° |
| 2026-04-25 00:23 | 70.37954 | 54.60433 | 33588 ft | 461 kts | 192° |
| 2026-04-25 00:24 | 70.31685 | 54.56565 | 33581 ft | 460 kts | 192° |
| 2026-04-25 00:24 | 70.25412 | 54.52720 | 33581 ft | 460 kts | 192° |
| 2026-04-25 00:25 | 70.19140 | 54.48899 | 33582 ft | 460 kts | 192° |
| 2026-04-25 00:25 | 70.12905 | 54.45128 | 33574 ft | 461 kts | 192° |
| 2026-04-25 00:26 | 70.06623 | 54.41341 | 33564 ft | 460 kts | 192° |
| 2026-04-25 00:26 | 70.00349 | 54.37587 | 33562 ft | 460 kts | 192° |
| 2026-04-25 00:27 | 69.94075 | 54.33860 | 33555 ft | 460 kts | 192° |
| 2026-04-25 00:27 | 69.87843 | 54.30175 | 33551 ft | 460 kts | 192° |
| 2026-04-25 00:28 | 69.81566 | 54.26492 | 33553 ft | 460 kts | 192° |
| 2026-04-25 00:28 | 69.75293 | 54.22830 | 33553 ft | 460 kts | 192° |
| 2026-04-25 00:29 | 69.69023 | 54.19192 | 33553 ft | 460 kts | 192° |
| 2026-04-25 00:29 | 69.62750 | 54.15576 | 33554 ft | 460 kts | 192° |
| 2026-04-25 00:30 | 69.56527 | 54.12007 | 33550 ft | 459 kts | 192° |
| 2026-04-25 00:30 | 69.50258 | 54.08437 | 33556 ft | 459 kts | 192° |
| 2026-04-25 00:31 | 69.43990 | 54.04890 | 33552 ft | 459 kts | 192° |
| 2026-04-25 00:31 | 69.37724 | 54.01357 | 33540 ft | 459 kts | 192° |
| 2026-04-25 00:32 | 69.31511 | 53.97877 | 33545 ft | 458 kts | 192° |
| 2026-04-25 00:32 | 69.25260 | 53.94402 | 33548 ft | 457 kts | 192° |
| 2026-04-25 00:33 | 69.19022 | 53.90949 | 33542 ft | 457 kts | 192° |
| 2026-04-25 00:33 | 69.12785 | 53.87520 | 33544 ft | 456 kts | 192° |
| 2026-04-25 00:34 | 69.06556 | 53.84114 | 33539 ft | 456 kts | 192° |
| 2026-04-25 00:34 | 69.00373 | 53.80753 | 33546 ft | 455 kts | 192° |
| 2026-04-25 00:35 | 68.94155 | 53.77390 | 33535 ft | 455 kts | 192° |
| 2026-04-25 00:35 | 68.87940 | 53.74050 | 33527 ft | 455 kts | 192° |
| 2026-04-25 00:36 | 68.81726 | 53.70729 | 33540 ft | 454 kts | 192° |
| 2026-04-25 00:36 | 68.75571 | 53.67457 | 33537 ft | 454 kts | 192° |
| 2026-04-25 00:37 | 68.69373 | 53.64185 | 33539 ft | 453 kts | 192° |
| 2026-04-25 00:37 | 68.63187 | 53.60935 | 33533 ft | 452 kts | 192° |
| 2026-04-25 00:38 | 68.57012 | 53.57708 | 33538 ft | 452 kts | 192° |
| 2026-04-25 00:38 | 68.50878 | 53.54520 | 33529 ft | 452 kts | 192° |
| 2026-04-25 00:39 | 68.44700 | 53.51325 | 33530 ft | 452 kts | 192° |
| 2026-04-25 00:39 | 68.38516 | 53.48153 | 33530 ft | 452 kts | 192° |
| 2026-04-25 00:40 | 68.32342 | 53.45000 | 33532 ft | 451 kts | 192° |
| 2026-04-25 00:40 | 68.26217 | 53.41878 | 33532 ft | 451 kts | 192° |
| 2026-04-25 00:41 | 68.20060 | 53.38771 | 33518 ft | 450 kts | 192° |
| 2026-04-25 00:41 | 68.13899 | 53.35677 | 33535 ft | 450 kts | 192° |
| 2026-04-25 00:42 | 68.07738 | 53.32597 | 33517 ft | 450 kts | 192° |
| 2026-04-25 00:42 | 68.01624 | 53.29557 | 33517 ft | 450 kts | 192° |
| 2026-04-25 00:43 | 67.95459 | 53.26504 | 33537 ft | 450 kts | 192° |
| 2026-04-25 00:43 | 67.89308 | 53.23476 | 33527 ft | 450 kts | 192° |
| 2026-04-25 00:44 | 67.83164 | 53.20469 | 33531 ft | 449 kts | 192° |
| 2026-04-25 00:44 | 67.77064 | 53.17504 | 33524 ft | 448 kts | 192° |
| 2026-04-25 00:45 | 67.70938 | 53.14537 | 33518 ft | 448 kts | 192° |
| 2026-04-25 00:45 | 67.64984 | 53.10169 | 33540 ft | 444 kts | 205° |
| 2026-04-25 00:46 | 67.59713 | 53.01689 | 33512 ft | 446 kts | 220° |
| 2026-04-25 00:47 | 67.52883 | 52.85259 | 33531 ft | 448 kts | 221° |
| 2026-04-25 00:47 | 67.48273 | 52.74274 | 33516 ft | 449 kts | 221° |
| 2026-04-25 00:48 | 67.43632 | 52.63379 | 33515 ft | 449 kts | 221° |
| 2026-04-25 00:48 | 67.38978 | 52.52521 | 33511 ft | 450 kts | 221° |
| 2026-04-25 00:49 | 67.34344 | 52.41758 | 33516 ft | 450 kts | 221° |
| 2026-04-25 00:49 | 67.29673 | 52.30982 | 33509 ft | 449 kts | 220° |
| 2026-04-25 00:50 | 67.24989 | 52.20286 | 33508 ft | 449 kts | 220° |
| 2026-04-25 00:50 | 67.20298 | 52.09635 | 33514 ft | 448 kts | 220° |
| 2026-04-25 00:51 | 67.15646 | 51.99113 | 33526 ft | 448 kts | 220° |
| 2026-04-25 00:51 | 67.10958 | 51.88564 | 33534 ft | 448 kts | 220° |
| 2026-04-25 00:52 | 67.06258 | 51.78046 | 33516 ft | 448 kts | 220° |
| 2026-04-25 00:52 | 67.01548 | 51.67557 | 33518 ft | 449 kts | 220° |
| 2026-04-25 00:53 | 66.96863 | 51.57179 | 33519 ft | 449 kts | 220° |
| 2026-04-25 00:53 | 66.92150 | 51.46716 | 33515 ft | 449 kts | 220° |
| 2026-04-25 00:54 | 66.87445 | 51.36275 | 33514 ft | 448 kts | 220° |
| 2026-04-25 00:54 | 66.82733 | 51.25870 | 33512 ft | 449 kts | 220° |
| 2026-04-25 00:55 | 66.78045 | 51.15568 | 33527 ft | 450 kts | 220° |
| 2026-04-25 00:55 | 66.73304 | 51.05214 | 33507 ft | 451 kts | 220° |
| 2026-04-25 00:56 | 66.68549 | 50.94902 | 33506 ft | 450 kts | 219° |
| 2026-04-25 00:56 | 66.63785 | 50.84609 | 33508 ft | 451 kts | 219° |
| 2026-04-25 00:57 | 66.59054 | 50.74444 | 33493 ft | 450 kts | 219° |
| 2026-04-25 00:57 | 66.54293 | 50.64267 | 33486 ft | 449 kts | 219° |
| 2026-04-25 00:58 | 66.49517 | 50.54104 | 33477 ft | 451 kts | 219° |
| 2026-04-25 00:58 | 66.44734 | 50.43985 | 33481 ft | 451 kts | 219° |
| 2026-04-25 00:59 | 66.39938 | 50.33887 | 33470 ft | 451 kts | 219° |
| 2026-04-25 00:59 | 66.35164 | 50.23901 | 33468 ft | 451 kts | 219° |
| 2026-04-25 01:00 | 66.30356 | 50.13896 | 33470 ft | 450 kts | 219° |
| 2026-04-25 01:00 | 66.25551 | 50.03930 | 33469 ft | 450 kts | 219° |